sensor_id;sensor_type;location;lat;lon;timestamp;temperature;humidity
354;DHT22;165;53.592;10.044;2023-03-12T00:00:04;1.40;99.90
354;DHT22;165;53.592;10.044;2023-03-12T00:02:30;1.40;99.90
354;DHT22;165;53.592;10.044;2023-03-12T00:04:55;1.40;99.90
354;DHT22;165;53.592;10.044;2023-03-12T00:07:20;1.40;99.90
354;DHT22;165;53.592;10.044;2023-03-12T00:09:46;1.40;99.90
354;DHT22;165;53.592;10.044;2023-03-12T00:12:11;1.50;99.90
354;DHT22;165;53.592;10.044;2023-03-12T00:14:37;1.60;99.90
354;DHT22;165;53.592;10.044;2023-03-12T00:17:03;1.60;99.90
354;DHT22;165;53.592;10.044;2023-03-12T00:19:29;1.70;99.90
354;DHT22;165;53.592;10.044;2023-03-12T00:21:54;1.80;99.90
354;DHT22;165;53.592;10.044;2023-03-12T00:24:20;1.90;99.90
354;DHT22;165;53.592;10.044;2023-03-12T00:26:46;1.90;99.90
354;DHT22;165;53.592;10.044;2023-03-12T00:29:12;1.90;99.90
354;DHT22;165;53.592;10.044;2023-03-12T00:31:37;2.00;99.90
354;DHT22;165;53.592;10.044;2023-03-12T00:34:03;1.90;99.90
354;DHT22;165;53.592;10.044;2023-03-12T00:36:30;1.90;99.90
354;DHT22;165;53.592;10.044;2023-03-12T00:38:58;1.90;99.90
354;DHT22;165;53.592;10.044;2023-03-12T00:41:24;1.80;99.90
354;DHT22;165;53.592;10.044;2023-03-12T00:43:50;1.80;99.90
354;DHT22;165;53.592;10.044;2023-03-12T00:46:17;1.70;99.90
354;DHT22;165;53.592;10.044;2023-03-12T00:48:42;1.70;99.90
354;DHT22;165;53.592;10.044;2023-03-12T00:51:08;1.70;99.90
354;DHT22;165;53.592;10.044;2023-03-12T00:53:34;1.70;99.90
354;DHT22;165;53.592;10.044;2023-03-12T00:56:01;1.70;99.90
354;DHT22;165;53.592;10.044;2023-03-12T00:58:26;1.80;99.90
354;DHT22;165;53.592;10.044;2023-03-12T01:00:52;1.80;99.90
354;DHT22;165;53.592;10.044;2023-03-12T01:03:17;1.70;99.90
354;DHT22;165;53.592;10.044;2023-03-12T01:05:43;1.80;99.90
354;DHT22;165;53.592;10.044;2023-03-12T01:08:09;1.80;99.90
354;DHT22;165;53.592;10.044;2023-03-12T01:10:36;1.90;99.90
354;DHT22;165;53.592;10.044;2023-03-12T01:13:02;1.90;99.90
354;DHT22;165;53.592;10.044;2023-03-12T01:15:28;1.90;99.90
354;DHT22;165;53.592;10.044;2023-03-12T01:17:53;2.10;99.90
354;DHT22;165;53.592;10.044;2023-03-12T01:20:19;2.10;99.90
354;DHT22;165;53.592;10.044;2023-03-12T01:22:44;2.10;99.90
354;DHT22;165;53.592;10.044;2023-03-12T01:25:11;2.10;99.90
354;DHT22;165;53.592;10.044;2023-03-12T01:27:36;2.00;99.90
354;DHT22;165;53.592;10.044;2023-03-12T01:30:03;1.90;99.90
354;DHT22;165;53.592;10.044;2023-03-12T01:32:29;1.90;99.90
354;DHT22;165;53.592;10.044;2023-03-12T01:34:54;1.90;99.90
354;DHT22;165;53.592;10.044;2023-03-12T01:37:21;1.80;99.90
354;DHT22;165;53.592;10.044;2023-03-12T01:39:46;1.90;99.90
354;DHT22;165;53.592;10.044;2023-03-12T01:42:12;2.00;99.90
354;DHT22;165;53.592;10.044;2023-03-12T01:44:53;2.00;99.90
354;DHT22;165;53.592;10.044;2023-03-12T01:47:19;2.00;99.90
354;DHT22;165;53.592;10.044;2023-03-12T01:49:45;2.00;99.90
354;DHT22;165;53.592;10.044;2023-03-12T01:52:15;2.00;99.90
354;DHT22;165;53.592;10.044;2023-03-12T01:57:29;2.00;99.90
354;DHT22;165;53.592;10.044;2023-03-12T02:00:05;2.10;99.90
354;DHT22;165;53.592;10.044;2023-03-12T02:02:31;2.10;99.90
354;DHT22;165;53.592;10.044;2023-03-12T02:05:06;2.20;99.90
354;DHT22;165;53.592;10.044;2023-03-12T02:07:34;2.20;99.90
354;DHT22;165;53.592;10.044;2023-03-12T02:09:59;2.20;99.90
354;DHT22;165;53.592;10.044;2023-03-12T02:12:25;2.20;99.90
354;DHT22;165;53.592;10.044;2023-03-12T02:14:50;2.10;99.90
354;DHT22;165;53.592;10.044;2023-03-12T02:17:16;2.10;99.90
354;DHT22;165;53.592;10.044;2023-03-12T02:19:48;2.10;99.90
354;DHT22;165;53.592;10.044;2023-03-12T02:22:16;2.20;99.90
354;DHT22;165;53.592;10.044;2023-03-12T02:25:03;2.30;99.90
354;DHT22;165;53.592;10.044;2023-03-12T02:27:32;2.30;99.90
354;DHT22;165;53.592;10.044;2023-03-12T02:29:59;2.30;99.90
354;DHT22;165;53.592;10.044;2023-03-12T02:32:28;2.30;99.90
354;DHT22;165;53.592;10.044;2023-03-12T02:34:55;2.30;99.90
354;DHT22;165;53.592;10.044;2023-03-12T02:37:21;2.30;99.90
354;DHT22;165;53.592;10.044;2023-03-12T02:39:53;2.40;99.90
354;DHT22;165;53.592;10.044;2023-03-12T02:42:21;2.40;99.90
354;DHT22;165;53.592;10.044;2023-03-12T02:44:47;2.50;99.90
354;DHT22;165;53.592;10.044;2023-03-12T02:47:13;2.40;99.90
354;DHT22;165;53.592;10.044;2023-03-12T02:49:38;2.40;99.90
354;DHT22;165;53.592;10.044;2023-03-12T02:52:04;2.40;99.90
354;DHT22;165;53.592;10.044;2023-03-12T02:54:29;2.50;99.90
354;DHT22;165;53.592;10.044;2023-03-12T02:56:55;2.40;99.90
354;DHT22;165;53.592;10.044;2023-03-12T02:59:22;2.50;99.90
354;DHT22;165;53.592;10.044;2023-03-12T03:01:55;2.40;99.90
354;DHT22;165;53.592;10.044;2023-03-12T03:04:21;2.40;99.90
354;DHT22;165;53.592;10.044;2023-03-12T03:06:46;2.50;99.90
354;DHT22;165;53.592;10.044;2023-03-12T03:09:12;2.50;99.90
354;DHT22;165;53.592;10.044;2023-03-12T03:11:37;2.40;99.90
354;DHT22;165;53.592;10.044;2023-03-12T03:14:03;2.40;99.90
354;DHT22;165;53.592;10.044;2023-03-12T03:16:28;2.30;99.90
354;DHT22;165;53.592;10.044;2023-03-12T03:18:54;2.20;99.90
354;DHT22;165;53.592;10.044;2023-03-12T03:21:20;2.20;99.90
354;DHT22;165;53.592;10.044;2023-03-12T03:23:48;2.10;99.90
354;DHT22;165;53.592;10.044;2023-03-12T03:26:15;2.00;99.90
354;DHT22;165;53.592;10.044;2023-03-12T03:28:41;1.90;99.90
354;DHT22;165;53.592;10.044;2023-03-12T03:31:06;1.80;99.90
354;DHT22;165;53.592;10.044;2023-03-12T03:33:33;1.80;99.90
354;DHT22;165;53.592;10.044;2023-03-12T03:36:00;1.70;99.90
354;DHT22;165;53.592;10.044;2023-03-12T03:38:26;1.70;99.90
354;DHT22;165;53.592;10.044;2023-03-12T03:40:53;1.60;99.90
354;DHT22;165;53.592;10.044;2023-03-12T03:43:18;1.50;99.90
354;DHT22;165;53.592;10.044;2023-03-12T03:45:44;1.40;99.90
354;DHT22;165;53.592;10.044;2023-03-12T03:48:10;1.30;99.90
354;DHT22;165;53.592;10.044;2023-03-12T03:50:37;1.30;99.90
354;DHT22;165;53.592;10.044;2023-03-12T03:53:04;1.30;99.90
354;DHT22;165;53.592;10.044;2023-03-12T03:55:29;1.20;99.90
354;DHT22;165;53.592;10.044;2023-03-12T03:57:55;1.30;99.90
354;DHT22;165;53.592;10.044;2023-03-12T04:00:20;1.30;99.90
354;DHT22;165;53.592;10.044;2023-03-12T04:02:46;1.30;99.90
354;DHT22;165;53.592;10.044;2023-03-12T04:05:12;1.40;99.90
354;DHT22;165;53.592;10.044;2023-03-12T04:07:38;1.40;99.90
354;DHT22;165;53.592;10.044;2023-03-12T04:10:04;1.40;99.90
354;DHT22;165;53.592;10.044;2023-03-12T04:12:29;1.40;99.90
354;DHT22;165;53.592;10.044;2023-03-12T04:14:55;1.30;99.90
354;DHT22;165;53.592;10.044;2023-03-12T04:17:20;1.30;99.90
354;DHT22;165;53.592;10.044;2023-03-12T04:19:46;1.40;99.90
354;DHT22;165;53.592;10.044;2023-03-12T04:22:12;1.30;99.90
354;DHT22;165;53.592;10.044;2023-03-12T04:24:37;1.30;99.90
354;DHT22;165;53.592;10.044;2023-03-12T04:27:03;1.30;99.90
354;DHT22;165;53.592;10.044;2023-03-12T04:29:28;1.30;99.90
354;DHT22;165;53.592;10.044;2023-03-12T04:31:54;1.30;99.90
354;DHT22;165;53.592;10.044;2023-03-12T04:34:19;1.20;99.90
354;DHT22;165;53.592;10.044;2023-03-12T04:36:45;1.30;99.90
354;DHT22;165;53.592;10.044;2023-03-12T04:39:10;1.30;99.90
354;DHT22;165;53.592;10.044;2023-03-12T04:41:37;1.30;99.90
354;DHT22;165;53.592;10.044;2023-03-12T04:44:03;1.30;99.90
354;DHT22;165;53.592;10.044;2023-03-12T04:46:29;1.20;99.90
354;DHT22;165;53.592;10.044;2023-03-12T04:48:54;1.20;99.90
354;DHT22;165;53.592;10.044;2023-03-12T04:51:20;1.20;99.90
354;DHT22;165;53.592;10.044;2023-03-12T04:53:46;1.20;99.90
354;DHT22;165;53.592;10.044;2023-03-12T04:56:12;1.10;99.90
354;DHT22;165;53.592;10.044;2023-03-12T04:58:37;1.10;99.90
354;DHT22;165;53.592;10.044;2023-03-12T05:01:03;1.20;99.90
354;DHT22;165;53.592;10.044;2023-03-12T05:03:28;1.10;99.90
354;DHT22;165;53.592;10.044;2023-03-12T05:05:54;1.10;99.90
354;DHT22;165;53.592;10.044;2023-03-12T05:08:19;1.10;99.90
354;DHT22;165;53.592;10.044;2023-03-12T05:10:45;1.10;99.90
354;DHT22;165;53.592;10.044;2023-03-12T05:13:19;1.10;99.90
354;DHT22;165;53.592;10.044;2023-03-12T05:15:47;1.10;99.90
354;DHT22;165;53.592;10.044;2023-03-12T05:18:13;1.20;99.90
354;DHT22;165;53.592;10.044;2023-03-12T05:20:39;1.20;99.90
354;DHT22;165;53.592;10.044;2023-03-12T05:23:04;1.30;99.90
354;DHT22;165;53.592;10.044;2023-03-12T05:25:30;1.30;99.90
354;DHT22;165;53.592;10.044;2023-03-12T05:27:55;1.20;99.90
354;DHT22;165;53.592;10.044;2023-03-12T05:30:21;1.20;99.90
354;DHT22;165;53.592;10.044;2023-03-12T05:32:47;1.20;99.90
354;DHT22;165;53.592;10.044;2023-03-12T05:35:12;1.20;99.90
354;DHT22;165;53.592;10.044;2023-03-12T05:37:38;1.30;99.90
354;DHT22;165;53.592;10.044;2023-03-12T05:40:04;1.30;99.90
354;DHT22;165;53.592;10.044;2023-03-12T05:42:30;1.30;99.90
354;DHT22;165;53.592;10.044;2023-03-12T05:44:55;1.40;99.90
354;DHT22;165;53.592;10.044;2023-03-12T05:47:21;1.50;99.90
354;DHT22;165;53.592;10.044;2023-03-12T05:49:46;1.50;99.90
354;DHT22;165;53.592;10.044;2023-03-12T05:52:12;1.50;99.90
354;DHT22;165;53.592;10.044;2023-03-12T05:54:37;1.50;99.90
354;DHT22;165;53.592;10.044;2023-03-12T05:57:03;1.50;99.90
354;DHT22;165;53.592;10.044;2023-03-12T05:59:29;1.60;99.90
354;DHT22;165;53.592;10.044;2023-03-12T06:01:54;1.60;99.90
354;DHT22;165;53.592;10.044;2023-03-12T06:04:20;1.50;99.90
354;DHT22;165;53.592;10.044;2023-03-12T06:06:46;1.50;99.90
354;DHT22;165;53.592;10.044;2023-03-12T06:09:11;1.60;99.90
354;DHT22;165;53.592;10.044;2023-03-12T06:11:37;1.60;99.90
354;DHT22;165;53.592;10.044;2023-03-12T06:14:02;1.70;99.90
354;DHT22;165;53.592;10.044;2023-03-12T06:16:28;1.80;99.90
354;DHT22;165;53.592;10.044;2023-03-12T06:18:58;1.80;99.90
354;DHT22;165;53.592;10.044;2023-03-12T06:21:26;1.90;99.90
354;DHT22;165;53.592;10.044;2023-03-12T06:23:52;2.00;99.90
354;DHT22;165;53.592;10.044;2023-03-12T06:26:20;2.00;99.90
354;DHT22;165;53.592;10.044;2023-03-12T06:28:46;2.10;99.90
354;DHT22;165;53.592;10.044;2023-03-12T06:31:19;2.00;99.90
354;DHT22;165;53.592;10.044;2023-03-12T06:33:44;2.10;99.90
354;DHT22;165;53.592;10.044;2023-03-12T06:36:10;2.10;99.90
354;DHT22;165;53.592;10.044;2023-03-12T06:38:38;2.10;99.90
354;DHT22;165;53.592;10.044;2023-03-12T06:41:13;2.20;99.90
354;DHT22;165;53.592;10.044;2023-03-12T06:43:39;2.20;99.90
354;DHT22;165;53.592;10.044;2023-03-12T06:46:07;2.30;99.90
354;DHT22;165;53.592;10.044;2023-03-12T06:48:34;2.30;99.90
354;DHT22;165;53.592;10.044;2023-03-12T06:50:59;2.30;99.90
354;DHT22;165;53.592;10.044;2023-03-12T06:53:25;2.30;99.90
354;DHT22;165;53.592;10.044;2023-03-12T06:55:50;2.30;99.90
354;DHT22;165;53.592;10.044;2023-03-12T06:58:16;2.50;99.90
354;DHT22;165;53.592;10.044;2023-03-12T07:00:42;2.70;99.90
354;DHT22;165;53.592;10.044;2023-03-12T07:03:08;2.90;99.90
354;DHT22;165;53.592;10.044;2023-03-12T07:05:33;3.20;99.90
354;DHT22;165;53.592;10.044;2023-03-12T07:07:59;3.60;99.90
354;DHT22;165;53.592;10.044;2023-03-12T07:10:24;3.80;99.90
354;DHT22;165;53.592;10.044;2023-03-12T07:12:50;3.90;99.90
354;DHT22;165;53.592;10.044;2023-03-12T07:15:15;4.00;99.90
354;DHT22;165;53.592;10.044;2023-03-12T07:17:41;3.90;99.90
354;DHT22;165;53.592;10.044;2023-03-12T07:20:07;3.90;99.90
354;DHT22;165;53.592;10.044;2023-03-12T07:22:33;3.90;99.90
354;DHT22;165;53.592;10.044;2023-03-12T07:24:58;3.90;99.90
354;DHT22;165;53.592;10.044;2023-03-12T07:27:24;3.90;99.90
354;DHT22;165;53.592;10.044;2023-03-12T07:29:49;3.90;99.90
354;DHT22;165;53.592;10.044;2023-03-12T07:32:15;3.80;99.90
354;DHT22;165;53.592;10.044;2023-03-12T07:34:40;3.80;99.90
354;DHT22;165;53.592;10.044;2023-03-12T07:37:06;3.70;99.90
354;DHT22;165;53.592;10.044;2023-03-12T07:39:32;3.90;99.90
354;DHT22;165;53.592;10.044;2023-03-12T07:41:57;3.90;99.90
354;DHT22;165;53.592;10.044;2023-03-12T07:44:22;4.10;99.90
354;DHT22;165;53.592;10.044;2023-03-12T07:46:48;4.50;99.90
354;DHT22;165;53.592;10.044;2023-03-12T07:49:13;4.80;99.90
354;DHT22;165;53.592;10.044;2023-03-12T07:51:39;5.20;99.90
354;DHT22;165;53.592;10.044;2023-03-12T07:54:04;5.80;99.90
354;DHT22;165;53.592;10.044;2023-03-12T07:56:30;6.50;99.90
354;DHT22;165;53.592;10.044;2023-03-12T07:58:55;7.30;99.90
354;DHT22;165;53.592;10.044;2023-03-12T08:01:21;7.80;99.90
354;DHT22;165;53.592;10.044;2023-03-12T08:03:47;7.80;99.90
354;DHT22;165;53.592;10.044;2023-03-12T08:06:12;8.20;99.90
354;DHT22;165;53.592;10.044;2023-03-12T08:08:37;8.20;99.90
354;DHT22;165;53.592;10.044;2023-03-12T08:11:04;8.40;99.90
354;DHT22;165;53.592;10.044;2023-03-12T08:13:29;8.10;99.90
354;DHT22;165;53.592;10.044;2023-03-12T08:15:55;8.50;99.90
354;DHT22;165;53.592;10.044;2023-03-12T08:18:21;9.30;99.90
354;DHT22;165;53.592;10.044;2023-03-12T08:20:51;9.70;99.90
354;DHT22;165;53.592;10.044;2023-03-12T08:23:17;9.40;99.90
354;DHT22;165;53.592;10.044;2023-03-12T08:25:47;9.10;99.90
354;DHT22;165;53.592;10.044;2023-03-12T08:28:13;8.60;99.90
354;DHT22;165;53.592;10.044;2023-03-12T08:30:43;8.20;99.90
354;DHT22;165;53.592;10.044;2023-03-12T08:33:12;7.80;99.90
354;DHT22;165;53.592;10.044;2023-03-12T08:35:38;7.70;99.90
354;DHT22;165;53.592;10.044;2023-03-12T08:38:03;7.40;99.90
354;DHT22;165;53.592;10.044;2023-03-12T08:40:29;7.30;99.90
354;DHT22;165;53.592;10.044;2023-03-12T08:42:54;7.30;99.90
354;DHT22;165;53.592;10.044;2023-03-12T08:45:20;7.30;99.90
354;DHT22;165;53.592;10.044;2023-03-12T08:47:45;7.30;99.90
354;DHT22;165;53.592;10.044;2023-03-12T08:50:12;7.40;99.90
354;DHT22;165;53.592;10.044;2023-03-12T08:52:41;7.50;99.90
354;DHT22;165;53.592;10.044;2023-03-12T08:55:07;7.30;99.90
354;DHT22;165;53.592;10.044;2023-03-12T08:57:32;7.40;99.90
354;DHT22;165;53.592;10.044;2023-03-12T08:59:58;7.60;99.90
354;DHT22;165;53.592;10.044;2023-03-12T09:02:23;7.50;99.90
354;DHT22;165;53.592;10.044;2023-03-12T09:04:49;7.30;99.90
354;DHT22;165;53.592;10.044;2023-03-12T09:07:15;7.10;99.90
354;DHT22;165;53.592;10.044;2023-03-12T09:09:40;7.00;99.90
354;DHT22;165;53.592;10.044;2023-03-12T09:12:06;6.70;99.90
354;DHT22;165;53.592;10.044;2023-03-12T09:14:31;6.30;99.90
354;DHT22;165;53.592;10.044;2023-03-12T09:16:57;6.10;99.90
354;DHT22;165;53.592;10.044;2023-03-12T09:19:23;6.20;99.90
354;DHT22;165;53.592;10.044;2023-03-12T09:21:48;6.20;99.90
354;DHT22;165;53.592;10.044;2023-03-12T09:24:13;6.20;99.90
354;DHT22;165;53.592;10.044;2023-03-12T09:26:39;6.20;99.90
354;DHT22;165;53.592;10.044;2023-03-12T09:29:04;6.20;99.90
354;DHT22;165;53.592;10.044;2023-03-12T09:31:30;6.30;99.90
354;DHT22;165;53.592;10.044;2023-03-12T09:33:56;6.40;99.90
354;DHT22;165;53.592;10.044;2023-03-12T09:36:21;6.50;99.90
354;DHT22;165;53.592;10.044;2023-03-12T09:38:49;6.50;99.90
354;DHT22;165;53.592;10.044;2023-03-12T09:41:21;6.40;99.90
354;DHT22;165;53.592;10.044;2023-03-12T09:43:51;6.50;99.90
354;DHT22;165;53.592;10.044;2023-03-12T09:46:42;6.60;99.90
354;DHT22;165;53.592;10.044;2023-03-12T09:49:29;7.20;99.90
354;DHT22;165;53.592;10.044;2023-03-12T09:51:57;7.40;99.90
354;DHT22;165;53.592;10.044;2023-03-12T09:54:28;7.50;99.90
354;DHT22;165;53.592;10.044;2023-03-12T09:57:01;7.60;99.90
354;DHT22;165;53.592;10.044;2023-03-12T09:59:27;7.80;99.90
354;DHT22;165;53.592;10.044;2023-03-12T10:02:02;8.00;99.90
354;DHT22;165;53.592;10.044;2023-03-12T10:04:40;8.20;99.90
354;DHT22;165;53.592;10.044;2023-03-12T10:07:11;8.50;99.90
354;DHT22;165;53.592;10.044;2023-03-12T10:12:42;8.90;99.90
354;DHT22;165;53.592;10.044;2023-03-12T10:17:55;8.90;99.90
354;DHT22;165;53.592;10.044;2023-03-12T10:23:07;8.80;99.90
354;DHT22;165;53.592;10.044;2023-03-12T10:28:16;8.90;99.90
354;DHT22;165;53.592;10.044;2023-03-12T10:30:48;9.50;99.90
354;DHT22;165;53.592;10.044;2023-03-12T10:33:17;9.60;99.90
354;DHT22;165;53.592;10.044;2023-03-12T10:35:43;9.80;99.90
354;DHT22;165;53.592;10.044;2023-03-12T10:38:26;9.70;99.90
354;DHT22;165;53.592;10.044;2023-03-12T10:40:53;9.30;99.90
354;DHT22;165;53.592;10.044;2023-03-12T10:43:19;9.10;99.90
354;DHT22;165;53.592;10.044;2023-03-12T10:48:21;8.70;99.90
354;DHT22;165;53.592;10.044;2023-03-12T10:53:34;8.10;99.90
354;DHT22;165;53.592;10.044;2023-03-12T10:56:01;7.90;99.90
354;DHT22;165;53.592;10.044;2023-03-12T10:58:50;7.80;99.90
354;DHT22;165;53.592;10.044;2023-03-12T11:01:27;7.80;99.90
354;DHT22;165;53.592;10.044;2023-03-12T11:04:09;7.80;99.90
354;DHT22;165;53.592;10.044;2023-03-12T11:06:38;7.40;99.90
354;DHT22;165;53.592;10.044;2023-03-12T11:09:17;7.10;99.90
354;DHT22;165;53.592;10.044;2023-03-12T11:11:45;7.00;99.90
354;DHT22;165;53.592;10.044;2023-03-12T11:14:25;6.90;99.90
354;DHT22;165;53.592;10.044;2023-03-12T11:16:52;7.00;99.90
354;DHT22;165;53.592;10.044;2023-03-12T11:19:44;7.00;99.90
354;DHT22;165;53.592;10.044;2023-03-12T11:22:10;6.90;99.90
354;DHT22;165;53.592;10.044;2023-03-12T11:24:35;6.70;99.90
354;DHT22;165;53.592;10.044;2023-03-12T11:27:05;6.60;99.90
354;DHT22;165;53.592;10.044;2023-03-12T11:29:44;6.60;99.90
354;DHT22;165;53.592;10.044;2023-03-12T11:32:35;6.60;99.90
354;DHT22;165;53.592;10.044;2023-03-12T11:35:02;6.70;99.90
354;DHT22;165;53.592;10.044;2023-03-12T11:38:02;6.60;99.90
354;DHT22;165;53.592;10.044;2023-03-12T11:40:47;6.70;99.90
354;DHT22;165;53.592;10.044;2023-03-12T11:49:10;7.00;99.90
354;DHT22;165;53.592;10.044;2023-03-12T11:54:36;7.30;99.90
354;DHT22;165;53.592;10.044;2023-03-12T11:57:15;7.00;99.90
354;DHT22;165;53.592;10.044;2023-03-12T12:00:09;6.90;99.90
354;DHT22;165;53.592;10.044;2023-03-12T12:08:51;6.90;99.90
354;DHT22;165;53.592;10.044;2023-03-12T12:11:33;6.80;99.90
354;DHT22;165;53.592;10.044;2023-03-12T12:17:04;6.90;99.90
354;DHT22;165;53.592;10.044;2023-03-12T12:22:28;7.30;99.90
354;DHT22;165;53.592;10.044;2023-03-12T12:25:23;7.40;99.90
354;DHT22;165;53.592;10.044;2023-03-12T12:35:47;7.00;99.90
354;DHT22;165;53.592;10.044;2023-03-12T12:38:33;6.90;99.90
354;DHT22;165;53.592;10.044;2023-03-12T12:41:10;6.90;99.90
354;DHT22;165;53.592;10.044;2023-03-12T12:43:39;7.00;99.90
354;DHT22;165;53.592;10.044;2023-03-12T12:48:41;7.00;99.90
354;DHT22;165;53.592;10.044;2023-03-12T12:51:08;7.00;99.90
354;DHT22;165;53.592;10.044;2023-03-12T12:53:45;6.80;99.90
354;DHT22;165;53.592;10.044;2023-03-12T12:56:30;6.90;99.90
354;DHT22;165;53.592;10.044;2023-03-12T12:59:13;7.10;99.90
354;DHT22;165;53.592;10.044;2023-03-12T13:01:41;7.10;99.90
354;DHT22;165;53.592;10.044;2023-03-12T13:04:26;7.30;99.90
354;DHT22;165;53.592;10.044;2023-03-12T13:09:35;7.30;99.90
354;DHT22;165;53.592;10.044;2023-03-12T13:12:17;7.40;99.90
354;DHT22;165;53.592;10.044;2023-03-12T13:14:45;7.30;99.90
354;DHT22;165;53.592;10.044;2023-03-12T13:19:50;6.70;99.90
354;DHT22;165;53.592;10.044;2023-03-12T13:22:36;6.30;99.90
354;DHT22;165;53.592;10.044;2023-03-12T13:27:40;6.20;99.90
354;DHT22;165;53.592;10.044;2023-03-12T13:45:30;6.20;99.90
354;DHT22;165;53.592;10.044;2023-03-12T13:47:59;6.00;99.90
354;DHT22;165;53.592;10.044;2023-03-12T13:50:26;6.20;99.90
354;DHT22;165;53.592;10.044;2023-03-12T13:53:06;6.20;99.90
354;DHT22;165;53.592;10.044;2023-03-12T13:55:34;6.30;99.90
354;DHT22;165;53.592;10.044;2023-03-12T13:58:16;6.20;99.90
354;DHT22;165;53.592;10.044;2023-03-12T14:00:56;6.00;99.90
354;DHT22;165;53.592;10.044;2023-03-12T14:03:31;5.80;99.90
354;DHT22;165;53.592;10.044;2023-03-12T14:06:05;5.80;99.90
354;DHT22;165;53.592;10.044;2023-03-12T14:11:40;5.50;99.90
354;DHT22;165;53.592;10.044;2023-03-12T14:14:23;5.50;99.90
354;DHT22;165;53.592;10.044;2023-03-12T14:16:55;5.40;99.90
354;DHT22;165;53.592;10.044;2023-03-12T14:19:32;5.50;99.90
354;DHT22;165;53.592;10.044;2023-03-12T14:22:04;5.20;99.90
354;DHT22;165;53.592;10.044;2023-03-12T14:24:36;5.20;99.90
354;DHT22;165;53.592;10.044;2023-03-12T14:27:04;5.10;99.90
354;DHT22;165;53.592;10.044;2023-03-12T14:29:42;5.30;99.90
354;DHT22;165;53.592;10.044;2023-03-12T14:32:18;5.20;99.90
354;DHT22;165;53.592;10.044;2023-03-12T14:34:46;5.10;99.90
354;DHT22;165;53.592;10.044;2023-03-12T14:37:39;5.00;99.90
354;DHT22;165;53.592;10.044;2023-03-12T14:40:19;4.90;99.90
354;DHT22;165;53.592;10.044;2023-03-12T14:42:46;4.90;99.90
354;DHT22;165;53.592;10.044;2023-03-12T14:45:20;4.90;99.90
354;DHT22;165;53.592;10.044;2023-03-12T14:47:55;4.90;99.90
354;DHT22;165;53.592;10.044;2023-03-12T14:50:25;4.80;99.90
354;DHT22;165;53.592;10.044;2023-03-12T14:52:52;4.80;99.90
354;DHT22;165;53.592;10.044;2023-03-12T14:55:23;4.80;99.90
354;DHT22;165;53.592;10.044;2023-03-12T14:58:05;4.60;99.90
354;DHT22;165;53.592;10.044;2023-03-12T15:00:31;4.40;99.90
354;DHT22;165;53.592;10.044;2023-03-12T15:02:59;4.60;99.90
354;DHT22;165;53.592;10.044;2023-03-12T15:05:27;4.60;99.90
354;DHT22;165;53.592;10.044;2023-03-12T15:07:59;4.50;99.90
354;DHT22;165;53.592;10.044;2023-03-12T15:10:27;4.50;99.90
354;DHT22;165;53.592;10.044;2023-03-12T15:12:57;4.40;99.90
354;DHT22;165;53.592;10.044;2023-03-12T15:15:34;4.30;99.90
354;DHT22;165;53.592;10.044;2023-03-12T15:18:06;4.10;99.90
354;DHT22;165;53.592;10.044;2023-03-12T15:20:32;4.20;99.90
354;DHT22;165;53.592;10.044;2023-03-12T15:22:59;4.10;99.90
354;DHT22;165;53.592;10.044;2023-03-12T15:25:30;4.00;99.90
354;DHT22;165;53.592;10.044;2023-03-12T15:30:31;4.10;99.90
354;DHT22;165;53.592;10.044;2023-03-12T15:33:08;4.00;99.90
354;DHT22;165;53.592;10.044;2023-03-12T15:35:36;3.90;99.90
354;DHT22;165;53.592;10.044;2023-03-12T15:38:02;3.80;99.90
354;DHT22;165;53.592;10.044;2023-03-12T15:40:29;3.80;99.90
354;DHT22;165;53.592;10.044;2023-03-12T15:42:56;3.80;99.90
354;DHT22;165;53.592;10.044;2023-03-12T15:45:25;3.70;99.90
354;DHT22;165;53.592;10.044;2023-03-12T15:47:53;3.70;99.90
354;DHT22;165;53.592;10.044;2023-03-12T15:50:31;3.70;99.90
354;DHT22;165;53.592;10.044;2023-03-12T15:53:00;3.70;99.90
354;DHT22;165;53.592;10.044;2023-03-12T15:55:31;3.70;99.90
354;DHT22;165;53.592;10.044;2023-03-12T15:57:58;3.70;99.90
354;DHT22;165;53.592;10.044;2023-03-12T16:03:02;3.70;99.90
354;DHT22;165;53.592;10.044;2023-03-12T16:05:34;3.60;99.90
354;DHT22;165;53.592;10.044;2023-03-12T16:08:08;3.50;99.90
354;DHT22;165;53.592;10.044;2023-03-12T16:10:35;3.50;99.90
354;DHT22;165;53.592;10.044;2023-03-12T16:13:02;3.50;99.90
354;DHT22;165;53.592;10.044;2023-03-12T16:15:33;3.60;99.90
354;DHT22;165;53.592;10.044;2023-03-12T16:18:00;3.60;99.90
354;DHT22;165;53.592;10.044;2023-03-12T16:20:26;3.60;99.90
354;DHT22;165;53.592;10.044;2023-03-12T16:22:52;3.60;99.90
354;DHT22;165;53.592;10.044;2023-03-12T16:25:17;3.60;99.90
354;DHT22;165;53.592;10.044;2023-03-12T16:27:46;3.90;99.90
354;DHT22;165;53.592;10.044;2023-03-12T16:30:17;3.60;99.90
354;DHT22;165;53.592;10.044;2023-03-12T16:32:43;3.60;99.90
354;DHT22;165;53.592;10.044;2023-03-12T16:35:11;3.60;99.90
354;DHT22;165;53.592;10.044;2023-03-12T16:37:37;3.60;99.90
354;DHT22;165;53.592;10.044;2023-03-12T16:40:02;3.50;99.90
354;DHT22;165;53.592;10.044;2023-03-12T16:42:31;3.50;99.90
354;DHT22;165;53.592;10.044;2023-03-12T16:44:57;3.50;99.90
354;DHT22;165;53.592;10.044;2023-03-12T16:47:23;3.50;99.90
354;DHT22;165;53.592;10.044;2023-03-12T16:49:49;3.40;99.90
354;DHT22;165;53.592;10.044;2023-03-12T16:52:19;3.30;99.90
354;DHT22;165;53.592;10.044;2023-03-12T16:54:47;3.40;99.90
354;DHT22;165;53.592;10.044;2023-03-12T16:59:53;3.50;99.90
354;DHT22;165;53.592;10.044;2023-03-12T17:02:19;3.50;99.90
354;DHT22;165;53.592;10.044;2023-03-12T17:04:45;3.50;99.90
354;DHT22;165;53.592;10.044;2023-03-12T17:07:10;3.50;99.90
354;DHT22;165;53.592;10.044;2023-03-12T17:09:36;3.50;99.90
354;DHT22;165;53.592;10.044;2023-03-12T17:12:01;3.40;99.90
354;DHT22;165;53.592;10.044;2023-03-12T17:14:28;3.50;99.90
354;DHT22;165;53.592;10.044;2023-03-12T17:16:55;3.50;99.90
354;DHT22;165;53.592;10.044;2023-03-12T17:19:20;3.50;99.90
354;DHT22;165;53.592;10.044;2023-03-12T17:21:46;3.60;99.90
354;DHT22;165;53.592;10.044;2023-03-12T17:24:12;3.60;99.90
354;DHT22;165;53.592;10.044;2023-03-12T17:26:38;3.60;99.90
354;DHT22;165;53.592;10.044;2023-03-12T17:29:04;3.50;99.90
354;DHT22;165;53.592;10.044;2023-03-12T17:31:30;3.60;99.90
354;DHT22;165;53.592;10.044;2023-03-12T17:33:55;3.60;99.90
354;DHT22;165;53.592;10.044;2023-03-12T17:36:21;3.60;99.90
354;DHT22;165;53.592;10.044;2023-03-12T17:38:46;3.60;99.90
354;DHT22;165;53.592;10.044;2023-03-12T17:41:12;3.70;99.90
354;DHT22;165;53.592;10.044;2023-03-12T17:43:37;3.70;99.90
354;DHT22;165;53.592;10.044;2023-03-12T17:46:04;3.70;99.90
354;DHT22;165;53.592;10.044;2023-03-12T17:48:30;3.70;99.90
354;DHT22;165;53.592;10.044;2023-03-12T17:50:56;3.70;99.90
354;DHT22;165;53.592;10.044;2023-03-12T17:53:21;3.70;99.90
354;DHT22;165;53.592;10.044;2023-03-12T17:55:47;3.70;99.90
354;DHT22;165;53.592;10.044;2023-03-12T17:58:12;3.80;99.90
354;DHT22;165;53.592;10.044;2023-03-12T18:00:38;3.80;99.90
354;DHT22;165;53.592;10.044;2023-03-12T18:03:03;3.80;99.90
354;DHT22;165;53.592;10.044;2023-03-12T18:05:29;3.80;99.90